Time;durP1;ratioP1;P1;durP2;ratioP2;P2;SDS_P1;SDS_P2;PMS_P1;PMS_P2;Temp;Humidity;BMP_temperature;BMP_pressure;BME280_temperature;BME280_humidity;BME280_pressure;Samples;Min_cycle;Max_cycle;Signal;HPM_P1;HPM_P2
2024/02/06 00:00:03;;;;;;;6.70;3.00;;;18.10;63.30;;;;;;5068361;28;20461;-77
2024/02/06 00:02:32;;;;;;;5.93;2.80;;;18.10;63.30;;;;;;5062440;28;20849;-77
2024/02/06 00:05:00;;;;;;;6.90;2.60;;;18.10;63.30;;;;;;5065367;28;20434;-78
2024/02/06 00:07:30;;;;;;;4.63;2.63;;;18.10;63.50;;;;;;5063593;28;20568;-78
2024/02/06 00:10:03;;;;;;;4.93;2.83;;;18.10;63.40;;;;;;5071463;28;20446;-77
2024/02/06 00:12:31;;;;;;;4.67;2.97;;;18.10;63.40;;;;;;5064045;28;20454;-77
2024/02/06 00:14:59;;;;;;;5.13;3.10;;;18.10;63.30;;;;;;5067897;28;20485;-78
2024/02/06 00:17:27;;;;;;;6.73;3.00;;;18.10;63.10;;;;;;5073251;28;20473;-77
2024/02/06 00:19:56;;;;;;;4.33;3.10;;;18.10;63.20;;;;;;5055874;28;20529;-77
2024/02/06 00:22:24;;;;;;;4.83;3.43;;;18.10;62.90;;;;;;5065511;28;20532;-77
2024/02/06 00:24:53;;;;;;;4.67;3.10;;;18.10;63.10;;;;;;5055765;28;20451;-78
2024/02/06 00:27:21;;;;;;;3.50;3.10;;;18.10;63.00;;;;;;5062099;28;20526;-78
2024/02/06 00:29:51;;;;;;;3.77;3.33;;;18.10;62.90;;;;;;5058337;28;20924;-77
2024/02/06 00:32:20;;;;;;;8.13;3.77;;;18.10;63.00;;;;;;5069067;28;20445;-77
2024/02/06 00:34:48;;;;;;;3.40;3.10;;;18.10;62.80;;;;;;5058976;28;20514;-78
2024/02/06 00:37:18;;;;;;;4.87;3.13;;;18.10;62.70;;;;;;5063486;28;20476;-77
2024/02/06 00:39:46;;;;;;;4.53;3.10;;;18.10;62.80;;;;;;5065346;28;20447;-77
2024/02/06 00:42:14;;;;;;;4.37;2.87;;;18.10;62.70;;;;;;5063975;28;20445;-77
2024/02/06 00:44:42;;;;;;;3.43;3.10;;;18.10;62.70;;;;;;5060966;28;20509;-77
2024/02/06 00:47:10;;;;;;;4.13;3.10;;;18.10;62.60;;;;;;5069520;28;20525;-77
2024/02/06 00:49:38;;;;;;;6.10;2.97;;;18.10;62.80;;;;;;5066437;28;20445;-77
2024/02/06 00:52:07;;;;;;;5.80;3.23;;;18.10;62.50;;;;;;5055845;28;20497;-77
2024/02/06 00:54:37;;;;;;;5.13;3.10;;;18.10;62.40;;;;;;5062040;28;20534;-77
2024/02/06 00:57:05;;;;;;;3.77;3.00;;;18.10;62.70;;;;;;5070159;28;20484;-77
2024/02/06 00:59:33;;;;;;;5.70;2.83;;;18.10;62.60;;;;;;5061859;28;20561;-75
2024/02/06 01:02:01;;;;;;;3.00;2.70;;;18.10;62.60;;;;;;5053907;28;20435;-77
2024/02/06 01:04:29;;;;;;;5.23;2.87;;;18.10;62.60;;;;;;5067097;28;20438;-77
2024/02/06 01:06:57;;;;;;;4.20;3.03;;;18.10;62.60;;;;;;5072522;28;20538;-77
2024/02/06 01:09:26;;;;;;;6.57;3.20;;;18.00;62.40;;;;;;5073991;28;20452;-77
2024/02/06 01:11:56;;;;;;;4.63;2.73;;;18.10;62.70;;;;;;5078365;28;20437;-77
2024/02/06 01:14:24;;;;;;;3.93;2.83;;;18.10;62.70;;;;;;5076382;28;20538;-77
2024/02/06 01:16:51;;;;;;;6.20;2.70;;;18.10;62.70;;;;;;5078778;28;20473;-77
2024/02/06 01:19:19;;;;;;;6.67;3.00;;;18.10;62.60;;;;;;5070818;28;20474;-75
2024/02/06 01:21:47;;;;;;;5.73;3.30;;;18.10;62.60;;;;;;5066064;28;20525;-75
2024/02/06 01:24:15;;;;;;;6.30;2.90;;;18.10;62.20;;;;;;5069961;28;20445;-75
2024/02/06 01:26:43;;;;;;;7.83;3.47;;;18.10;62.40;;;;;;5065489;28;20496;-76
2024/02/06 01:29:13;;;;;;;6.10;3.07;;;18.10;62.40;;;;;;5063364;28;20478;-77
2024/02/06 01:31:41;;;;;;;4.50;3.03;;;18.10;62.10;;;;;;5062215;28;20484;-76
2024/02/06 01:34:11;;;;;;;7.63;3.20;;;18.10;62.20;;;;;;5067790;28;20438;-77
2024/02/06 01:36:39;;;;;;;5.97;2.80;;;18.10;62.40;;;;;;5064700;28;20488;-76
2024/02/06 01:39:07;;;;;;;6.47;3.10;;;18.10;62.40;;;;;;5063889;28;20450;-76
2024/02/06 01:41:35;;;;;;;5.73;3.53;;;18.10;62.20;;;;;;5065572;28;20443;-76
2024/02/06 01:44:05;;;;;;;5.00;3.10;;;18.10;62.10;;;;;;5066475;28;20525;-77
2024/02/06 01:46:34;;;;;;;7.30;2.97;;;18.10;62.10;;;;;;5064325;28;20443;-77
2024/02/06 01:49:03;;;;;;;3.43;3.13;;;18.10;62.10;;;;;;5066073;28;20434;-77
2024/02/06 01:51:32;;;;;;;7.20;3.00;;;18.10;62.10;;;;;;5065503;28;20516;-77
2024/02/06 01:53:59;;;;;;;5.03;2.90;;;18.10;62.10;;;;;;5065555;28;20445;-76
2024/02/06 01:56:27;;;;;;;6.90;3.00;;;18.10;62.10;;;;;;5067553;28;20467;-75
2024/02/06 01:58:56;;;;;;;5.60;3.47;;;18.10;62.00;;;;;;5064727;28;20851;-76
2024/02/06 02:01:24;;;;;;;5.73;3.23;;;18.10;62.10;;;;;;5068554;28;20492;-77
2024/02/06 02:03:54;;;;;;;8.13;3.40;;;18.10;62.00;;;;;;5062521;28;20452;-77
2024/02/06 02:06:22;;;;;;;7.40;2.83;;;18.10;61.90;;;;;;5069870;28;20473;-77
2024/02/06 02:08:51;;;;;;;3.43;2.63;;;18.10;62.10;;;;;;5052317;28;20446;-77
2024/02/06 02:11:18;;;;;;;5.73;2.70;;;18.10;62.00;;;;;;5061924;28;20477;-76
2024/02/06 02:13:47;;;;;;;4.97;3.10;;;18.10;62.00;;;;;;5078124;28;20441;-77
2024/02/06 02:16:18;;;;;;;7.43;2.83;;;18.10;61.90;;;;;;5074016;28;20453;-77
2024/02/06 02:18:46;;;;;;;5.67;3.30;;;18.10;61.70;;;;;;5075767;28;20449;-77
2024/02/06 02:21:16;;;;;;;4.03;2.70;;;18.10;61.90;;;;;;5077478;28;20436;-77
2024/02/06 02:23:45;;;;;;;4.87;3.10;;;18.10;62.00;;;;;;5076056;28;20488;-77
2024/02/06 02:26:14;;;;;;;5.13;2.90;;;18.10;61.90;;;;;;5074038;28;20454;-77
2024/02/06 02:28:42;;;;;;;4.83;3.07;;;18.10;61.70;;;;;;5074131;28;20464;-76
2024/02/06 02:31:11;;;;;;;5.90;2.87;;;18.10;61.50;;;;;;5073556;28;20529;-77
2024/02/06 02:33:42;;;;;;;7.00;3.10;;;18.10;61.60;;;;;;5072658;28;20430;-77
2024/02/06 02:36:15;;;;;;;5.53;3.20;;;18.10;61.70;;;;;;5074702;28;20540;-76
2024/02/06 02:38:43;;;;;;;4.47;2.77;;;18.10;61.40;;;;;;5072947;28;20473;-76
2024/02/06 02:41:12;;;;;;;7.97;2.80;;;18.10;61.70;;;;;;5073718;28;20438;-77
2024/02/06 02:43:42;;;;;;;5.77;3.37;;;18.10;61.60;;;;;;5073263;28;20452;-77
2024/02/06 02:46:11;;;;;;;6.03;3.20;;;18.10;61.40;;;;;;5074386;28;20527;-77
2024/02/06 02:48:40;;;;;;;6.70;3.17;;;18.10;61.60;;;;;;5073950;28;20452;-76
2024/02/06 02:51:10;;;;;;;7.30;3.00;;;18.10;61.50;;;;;;5075518;28;20517;-77
2024/02/06 02:53:41;;;;;;;6.80;3.20;;;18.10;62.20;;;;;;5075596;28;20454;-76
2024/02/06 02:56:10;;;;;;;6.93;3.13;;;18.10;61.60;;;;;;5075879;28;20457;-77
2024/02/06 02:58:38;;;;;;;5.30;2.90;;;18.10;61.70;;;;;;5073916;28;20469;-76
2024/02/06 03:01:06;;;;;;;6.37;3.27;;;18.10;61.30;;;;;;5074273;28;20437;-75
2024/02/06 03:03:35;;;;;;;10.13;3.30;;;18.10;61.50;;;;;;5074872;28;20471;-76
2024/02/06 03:06:03;;;;;;;5.80;2.73;;;18.10;61.70;;;;;;5072540;28;20481;-76
2024/02/06 03:12:31;;;;;;;4.90;2.90;;;18.20;61.40;;;;;;5006074;28;20411;-76
2024/02/06 03:15:00;;;;;;;5.90;2.90;;;18.10;61.60;;;;;;5019312;28;20954;-76
2024/02/06 03:17:28;;;;;;;6.57;2.97;;;18.10;61.50;;;;;;5013674;28;20484;-77
2024/02/06 03:19:58;;;;;;;5.87;2.90;;;18.10;61.40;;;;;;5008950;28;20437;-76
2024/02/06 03:22:27;;;;;;;4.70;3.13;;;18.10;61.50;;;;;;5001317;28;20460;-77
2024/02/06 03:24:55;;;;;;;7.43;2.90;;;18.10;61.30;;;;;;4999863;28;20441;-75
2024/02/06 03:27:23;;;;;;;6.10;3.57;;;18.10;61.70;;;;;;4996130;28;20461;-75
2024/02/06 03:29:52;;;;;;;7.07;3.20;;;18.10;61.40;;;;;;4995277;28;20452;-75
2024/02/06 03:32:20;;;;;;;7.20;2.73;;;18.10;61.30;;;;;;4999631;28;20426;-76
2024/02/06 03:34:49;;;;;;;5.73;3.00;;;18.10;61.40;;;;;;4998146;28;20442;-76
2024/02/06 03:37:17;;;;;;;8.87;3.10;;;18.10;61.30;;;;;;4997353;28;20472;-78
2024/02/06 03:39:45;;;;;;;5.50;3.10;;;18.10;61.30;;;;;;4997468;28;20932;-77
2024/02/06 03:42:14;;;;;;;5.43;3.00;;;18.10;61.30;;;;;;4995569;28;20535;-76
2024/02/06 03:44:42;;;;;;;9.83;3.13;;;18.10;61.50;;;;;;4998386;28;20437;-77
2024/02/06 03:47:12;;;;;;;5.57;3.17;;;18.10;61.30;;;;;;5052249;28;20458;-76
2024/02/06 03:49:40;;;;;;;4.73;2.70;;;18.10;61.30;;;;;;5058707;28;20449;-77
2024/02/06 03:52:09;;;;;;;6.27;3.67;;;18.10;61.10;;;;;;5059212;28;20470;-77
2024/02/06 03:54:37;;;;;;;5.03;3.10;;;18.10;61.40;;;;;;5057731;28;20477;-77
2024/02/06 03:57:05;;;;;;;5.43;3.00;;;18.10;61.40;;;;;;5055913;28;20458;-77
2024/02/06 03:59:33;;;;;;;4.97;3.00;;;18.10;61.20;;;;;;5055541;28;20445;-77
2024/02/06 04:02:03;;;;;;;5.93;3.03;;;18.10;61.30;;;;;;5055666;28;20470;-76
2024/02/06 04:04:33;;;;;;;4.00;2.87;;;18.10;61.40;;;;;;5055588;28;20446;-77
2024/02/06 04:07:01;;;;;;;7.33;3.10;;;18.10;61.50;;;;;;5055737;28;20501;-75
2024/02/06 04:09:28;;;;;;;6.37;3.13;;;18.10;61.50;;;;;;5055478;28;20490;-76
2024/02/06 04:11:56;;;;;;;5.83;3.23;;;18.10;61.40;;;;;;5055254;28;20521;-75
2024/02/06 04:14:24;;;;;;;9.43;3.17;;;18.10;61.70;;;;;;5055424;28;20457;-76
2024/02/06 04:16:54;;;;;;;4.33;2.57;;;18.10;61.40;;;;;;5054744;28;20455;-75
2024/02/06 04:19:22;;;;;;;5.77;2.77;;;18.10;61.70;;;;;;5054806;28;20610;-76
2024/02/06 04:21:52;;;;;;;5.17;3.20;;;18.10;61.60;;;;;;5054617;28;20449;-76
2024/02/06 04:24:20;;;;;;;5.23;3.20;;;18.10;61.40;;;;;;5055085;28;20445;-76
2024/02/06 04:26:48;;;;;;;3.10;2.77;;;18.10;61.60;;;;;;5054446;28;20462;-76
2024/02/06 04:29:16;;;;;;;5.77;3.40;;;18.10;61.70;;;;;;5054712;28;20527;-76
2024/02/06 04:31:44;;;;;;;5.70;3.50;;;18.10;61.70;;;;;;5054071;28;20473;-75
2024/02/06 04:34:12;;;;;;;5.70;3.37;;;18.10;61.40;;;;;;5054663;28;20474;-75
2024/02/06 04:36:41;;;;;;;5.33;3.23;;;18.10;61.30;;;;;;5054153;28;20512;-75
2024/02/06 04:39:10;;;;;;;9.93;3.63;;;18.10;61.40;;;;;;5054864;28;20506;-76
2024/02/06 04:41:38;;;;;;;8.50;2.83;;;18.10;61.50;;;;;;5054566;28;20466;-75
2024/02/06 04:44:06;;;;;;;12.33;3.43;;;18.10;61.60;;;;;;5054423;28;20434;-76
2024/02/06 04:46:34;;;;;;;4.13;3.00;;;18.10;61.30;;;;;;5054361;28;20458;-75
2024/02/06 04:49:02;;;;;;;10.57;3.03;;;18.10;61.50;;;;;;5054694;28;20465;-76
2024/02/06 04:51:30;;;;;;;7.13;3.10;;;18.10;61.30;;;;;;5054602;28;20446;-76
2024/02/06 04:53:59;;;;;;;9.13;3.20;;;18.10;61.50;;;;;;5053805;28;20517;-76
2024/02/06 04:56:28;;;;;;;10.73;3.13;;;18.10;61.40;;;;;;5053998;28;20463;-75
2024/02/06 04:58:56;;;;;;;6.60;3.40;;;18.10;61.40;;;;;;5054035;28;20466;-76
2024/02/06 05:01:25;;;;;;;8.60;3.23;;;18.10;61.10;;;;;;5054033;28;20450;-75
2024/02/06 05:03:53;;;;;;;5.83;3.20;;;18.10;61.30;;;;;;5054042;28;20489;-76
2024/02/06 05:06:22;;;;;;;8.67;3.60;;;18.10;61.30;;;;;;5049619;28;20485;-76
2024/02/06 05:08:49;;;;;;;3.30;2.50;;;18.10;61.30;;;;;;5054154;28;20538;-75
2024/02/06 05:11:17;;;;;;;6.43;3.00;;;18.10;61.20;;;;;;5053976;28;20446;-76
2024/02/06 05:13:47;;;;;;;9.80;3.50;;;18.10;61.40;;;;;;5053885;28;20466;-76
2024/02/06 05:16:16;;;;;;;8.20;2.90;;;18.10;62.10;;;;;;5053837;28;20524;-76
2024/02/06 05:18:44;;;;;;;5.97;3.63;;;18.10;61.00;;;;;;5053920;28;20504;-75
2024/02/06 05:21:14;;;;;;;3.30;3.00;;;18.10;61.30;;;;;;5053966;28;20450;-76
2024/02/06 05:23:42;;;;;;;7.23;3.00;;;18.10;61.30;;;;;;5053685;28;20562;-75
2024/02/06 05:26:10;;;;;;;11.40;3.80;;;18.10;61.40;;;;;;5053544;28;20999;-75
2024/02/06 05:28:38;;;;;;;6.90;3.37;;;18.10;61.30;;;;;;5053846;28;20576;-75
2024/02/06 05:31:08;;;;;;;6.40;2.90;;;18.10;61.40;;;;;;5053506;28;20447;-76
2024/02/06 05:33:36;;;;;;;4.50;3.10;;;18.10;61.70;;;;;;5053876;28;20447;-76
2024/02/06 05:36:04;;;;;;;7.23;3.40;;;18.10;61.50;;;;;;5053482;28;20470;-76
2024/02/06 05:38:32;;;;;;;5.93;2.93;;;18.10;61.40;;;;;;5053337;28;20466;-76
2024/02/06 05:41:00;;;;;;;10.70;3.20;;;18.10;61.40;;;;;;5053502;28;20862;-76
2024/02/06 05:43:28;;;;;;;6.80;2.50;;;18.10;61.30;;;;;;5052516;28;20470;-75
2024/02/06 05:45:56;;;;;;;12.57;3.50;;;18.10;61.50;;;;;;5053245;28;20588;-75
2024/02/06 05:48:26;;;;;;;8.77;3.90;;;18.10;61.00;;;;;;5053320;28;20434;-75
2024/02/06 05:50:54;;;;;;;10.27;2.93;;;18.00;61.20;;;;;;5053098;28;20430;-76
2024/02/06 05:53:21;;;;;;;7.57;2.80;;;18.00;61.30;;;;;;5053297;28;20521;-75
2024/02/06 05:55:49;;;;;;;9.10;3.53;;;18.00;61.40;;;;;;5053182;28;20524;-76
2024/02/06 05:58:18;;;;;;;10.07;3.70;;;18.00;61.40;;;;;;5052913;28;20446;-76
2024/02/06 06:00:46;;;;;;;7.63;3.00;;;18.00;61.30;;;;;;5055180;28;20462;-76
2024/02/06 06:03:14;;;;;;;6.20;3.00;;;18.00;61.50;;;;;;5061609;28;20451;-77
2024/02/06 06:05:43;;;;;;;6.97;3.13;;;18.00;61.50;;;;;;5058311;28;20477;-77
2024/02/06 06:08:11;;;;;;;5.33;2.83;;;18.00;61.20;;;;;;5071126;28;20444;-76
2024/02/06 06:10:40;;;;;;;8.07;3.47;;;18.00;61.50;;;;;;5066733;28;20430;-77
2024/02/06 06:13:08;;;;;;;7.50;3.40;;;18.00;61.40;;;;;;5068233;28;20462;-77
2024/02/06 06:15:36;;;;;;;7.20;3.77;;;18.00;61.40;;;;;;5061745;28;20434;-77
2024/02/06 06:18:04;;;;;;;4.10;2.97;;;18.00;61.70;;;;;;5072586;28;20529;-76
2024/02/06 06:20:32;;;;;;;8.30;3.50;;;18.00;61.50;;;;;;5059987;28;20491;-76
2024/02/06 06:23:01;;;;;;;8.00;2.87;;;18.00;61.90;;;;;;5072548;28;20449;-77
2024/02/06 06:25:30;;;;;;;8.00;2.93;;;18.00;61.20;;;;;;5060641;28;20454;-76
2024/02/06 06:27:59;;;;;;;10.67;2.83;;;18.00;61.50;;;;;;5059471;28;20481;-76
2024/02/06 06:30:27;;;;;;;10.93;3.23;;;17.90;61.30;;;;;;5056986;28;20437;-76
2024/02/06 06:32:55;;;;;;;7.37;3.00;;;18.00;61.70;;;;;;5072648;28;20449;-76
2024/02/06 06:35:23;;;;;;;7.00;3.23;;;18.00;61.70;;;;;;5056034;28;20445;-76
2024/02/06 06:37:51;;;;;;;7.97;3.13;;;18.00;61.80;;;;;;5066420;28;20442;-76
2024/02/06 06:40:21;;;;;;;12.40;2.97;;;18.00;61.80;;;;;;5053453;28;20470;-76
2024/02/06 06:42:48;;;;;;;5.10;3.50;;;18.00;61.40;;;;;;5073513;28;20441;-76
2024/02/06 06:45:16;;;;;;;5.43;3.13;;;17.90;61.60;;;;;;5091232;28;20437;-76
2024/02/06 06:47:44;;;;;;;6.00;2.97;;;17.90;61.70;;;;;;5077259;28;20442;-76
2024/02/06 06:50:12;;;;;;;6.40;3.00;;;18.00;61.70;;;;;;5066956;28;20536;-77
2024/02/06 06:52:41;;;;;;;6.77;3.47;;;18.00;61.80;;;;;;5053846;28;20457;-76
2024/02/06 06:55:09;;;;;;;5.77;3.23;;;18.00;62.20;;;;;;5052551;28;20454;-76
2024/02/06 06:57:42;;;;;;;5.63;3.30;;;18.00;61.80;;;;;;5052479;28;20459;-76
2024/02/06 07:00:12;;;;;;;9.57;3.50;;;18.00;61.70;;;;;;5052541;28;20559;-76
2024/02/06 07:02:40;;;;;;;9.83;3.30;;;18.00;61.30;;;;;;5052308;28;20443;-76
2024/02/06 07:05:09;;;;;;;4.93;2.57;;;17.90;61.80;;;;;;5052124;28;20447;-76
2024/02/06 07:07:38;;;;;;;7.93;2.90;;;17.90;61.70;;;;;;5052567;28;20478;-76
2024/02/06 07:10:07;;;;;;;4.43;2.83;;;17.90;61.50;;;;;;5052192;28;20447;-76
2024/02/06 07:12:35;;;;;;;5.60;3.03;;;18.00;61.60;;;;;;5051975;28;20474;-77
2024/02/06 07:15:06;;;;;;;6.67;3.27;;;18.00;61.70;;;;;;5052743;28;20477;-77
2024/02/06 07:17:33;;;;;;;6.53;2.87;;;18.00;61.70;;;;;;5052503;28;20493;-76
2024/02/06 07:20:01;;;;;;;9.50;3.03;;;17.90;61.60;;;;;;5051943;28;20466;-76
2024/02/06 07:22:33;;;;;;;6.63;3.27;;;18.00;61.90;;;;;;5055647;28;20956;-76
2024/02/06 07:25:02;;;;;;;5.80;2.60;;;18.00;61.70;;;;;;5072133;28;20430;-77
2024/02/06 07:27:32;;;;;;;11.67;3.30;;;18.00;61.80;;;;;;5071363;28;20476;-77
2024/02/06 07:30:02;;;;;;;5.60;3.00;;;18.00;61.70;;;;;;5071778;28;20532;-77
2024/02/06 07:32:31;;;;;;;6.17;2.70;;;18.00;61.70;;;;;;5051930;28;20435;-76
2024/02/06 07:35:00;;;;;;;6.10;2.67;;;18.00;61.60;;;;;;5052292;28;20457;-77
2024/02/06 07:37:28;;;;;;;8.23;3.30;;;18.00;61.70;;;;;;5052161;28;20466;-76
2024/02/06 07:39:56;;;;;;;10.23;3.27;;;18.00;61.70;;;;;;5051807;28;20502;-77
2024/02/06 07:42:23;;;;;;;6.80;3.33;;;18.00;61.40;;;;;;5051908;28;20464;-76
2024/02/06 07:44:52;;;;;;;6.40;3.10;;;18.00;61.50;;;;;;5051859;28;20983;-77
2024/02/06 07:47:19;;;;;;;6.40;3.40;;;18.00;61.70;;;;;;5051800;28;20462;-77
2024/02/06 07:49:49;;;;;;;3.97;3.20;;;18.10;61.60;;;;;;5051644;28;20496;-76
2024/02/06 07:52:17;;;;;;;8.10;3.20;;;18.00;61.60;;;;;;5051735;28;20526;-76
2024/02/06 07:54:45;;;;;;;6.80;3.07;;;18.10;61.70;;;;;;5051858;28;20451;-77
2024/02/06 07:57:13;;;;;;;7.63;3.50;;;18.10;61.30;;;;;;5052855;28;20504;-77
2024/02/06 07:59:41;;;;;;;10.67;3.60;;;18.10;61.60;;;;;;5053037;28;20476;-77
2024/02/06 08:02:11;;;;;;;6.73;2.77;;;18.10;61.40;;;;;;5053564;28;20442;-77
2024/02/06 08:04:38;;;;;;;6.53;3.37;;;18.00;61.80;;;;;;5052565;28;20439;-76
2024/02/06 08:07:08;;;;;;;7.43;3.20;;;18.00;61.50;;;;;;5053764;28;20466;-77
2024/02/06 08:09:36;;;;;;;7.63;3.20;;;18.10;61.60;;;;;;5055692;28;20465;-77
2024/02/06 08:12:05;;;;;;;6.60;3.47;;;18.10;61.50;;;;;;5054892;28;20443;-76
2024/02/06 08:14:35;;;;;;;3.83;2.93;;;18.10;61.80;;;;;;5055276;28;20533;-77
2024/02/06 08:17:03;;;;;;;4.97;3.10;;;18.00;61.60;;;;;;5055414;28;20519;-77
2024/02/06 08:19:32;;;;;;;7.30;3.47;;;18.00;61.60;;;;;;5055275;28;20468;-77
2024/02/06 08:22:00;;;;;;;9.17;3.73;;;18.00;61.80;;;;;;5055707;28;20451;-77
2024/02/06 08:24:30;;;;;;;5.60;3.03;;;18.10;61.60;;;;;;5056920;28;20450;-77
2024/02/06 08:26:58;;;;;;;4.23;2.97;;;18.00;61.40;;;;;;5056135;28;20466;-74
2024/02/06 08:29:26;;;;;;;7.73;3.47;;;18.00;61.70;;;;;;5055925;28;20455;-75
2024/02/06 08:31:55;;;;;;;7.33;3.30;;;18.10;61.90;;;;;;5054897;28;20538;-74
2024/02/06 08:34:23;;;;;;;4.60;3.03;;;18.10;61.90;;;;;;5054875;28;20442;-74
2024/02/06 08:36:51;;;;;;;6.40;3.33;;;18.10;61.70;;;;;;5054760;28;20474;-74
2024/02/06 08:39:19;;;;;;;7.70;3.37;;;18.10;61.80;;;;;;5054789;28;20442;-73
2024/02/06 08:41:49;;;;;;;10.27;3.80;;;18.10;61.60;;;;;;5055998;28;20501;-74
2024/02/06 08:44:18;;;;;;;9.77;3.10;;;18.10;61.70;;;;;;5063536;28;20517;-74
2024/02/06 08:46:47;;;;;;;7.93;3.80;;;18.10;61.90;;;;;;5075734;28;20500;-74
2024/02/06 08:49:15;;;;;;;7.50;3.30;;;18.10;61.90;;;;;;5074883;28;20487;-74
2024/02/06 08:51:43;;;;;;;9.03;3.70;;;18.10;61.60;;;;;;5074806;28;20528;-75
2024/02/06 08:54:11;;;;;;;7.40;3.63;;;18.10;61.60;;;;;;5075136;28;20480;-75
2024/02/06 08:56:39;;;;;;;10.07;3.50;;;18.10;62.20;;;;;;5074917;28;20458;-76
2024/02/06 08:59:09;;;;;;;9.37;3.93;;;18.10;61.80;;;;;;5071168;28;20517;-75
2024/02/06 09:01:37;;;;;;;6.20;2.90;;;18.10;61.90;;;;;;5069208;28;20469;-75
2024/02/06 09:04:06;;;;;;;8.50;3.67;;;18.10;61.90;;;;;;5069580;28;20447;-75
2024/02/06 09:06:35;;;;;;;10.13;3.27;;;18.10;61.80;;;;;;5068545;28;20527;-77
2024/02/06 09:09:04;;;;;;;8.57;3.27;;;18.10;62.00;;;;;;5069157;28;20450;-74
2024/02/06 09:11:32;;;;;;;5.07;2.60;;;18.10;61.70;;;;;;5060669;28;20435;-75
2024/02/06 09:14:00;;;;;;;8.10;3.27;;;18.10;61.90;;;;;;5074100;28;20444;-74
2024/02/06 09:16:30;;;;;;;11.60;3.47;;;18.20;61.90;;;;;;5063608;28;20854;-77
2024/02/06 09:18:58;;;;;;;9.03;3.50;;;18.20;62.00;;;;;;5069532;28;20502;-77
2024/02/06 09:21:28;;;;;;;8.23;3.00;;;18.20;62.00;;;;;;5058905;28;20466;-76
2024/02/06 09:23:56;;;;;;;4.23;2.50;;;18.20;61.70;;;;;;5059210;28;20509;-77
2024/02/06 09:26:24;;;;;;;7.90;3.50;;;18.30;62.00;;;;;;5054655;28;20466;-76
2024/02/06 09:28:52;;;;;;;7.20;3.00;;;18.30;61.80;;;;;;5054015;28;20446;-76
2024/02/06 09:31:20;;;;;;;8.17;3.30;;;18.30;61.60;;;;;;5054004;28;20447;-76
2024/02/06 09:33:52;;;;;;;15.70;2.80;;;18.30;61.50;;;;;;5054327;28;20454;-75
2024/02/06 09:36:22;;;;;;;6.53;3.30;;;18.30;61.50;;;;;;5055232;28;20466;-77
2024/02/06 09:38:50;;;;;;;7.53;2.93;;;18.30;61.30;;;;;;5062667;28;20457;-76
2024/02/06 09:41:18;;;;;;;16.60;3.43;;;18.30;61.60;;;;;;5066361;28;20469;-76
2024/02/06 09:43:47;;;;;;;9.70;3.53;;;18.30;61.40;;;;;;5057554;28;20504;-76
2024/02/06 09:46:15;;;;;;;8.00;3.20;;;18.30;61.50;;;;;;5064154;28;20503;-78
2024/02/06 09:48:43;;;;;;;8.83;2.83;;;18.30;61.50;;;;;;5073473;28;20430;-77
2024/02/06 09:51:13;;;;;;;6.90;3.00;;;18.30;61.50;;;;;;5063005;28;20426;-78
2024/02/06 09:53:41;;;;;;;8.20;3.27;;;18.40;61.60;;;;;;5071996;28;20461;-78
2024/02/06 09:56:09;;;;;;;11.83;3.50;;;18.40;61.40;;;;;;5079985;28;20488;-77
2024/02/06 09:58:37;;;;;;;9.73;3.27;;;18.40;61.70;;;;;;5074687;28;20492;-76
2024/02/06 10:01:09;;;;;;;12.40;3.27;;;18.40;61.60;;;;;;5059923;28;20468;-77
2024/02/06 10:03:38;;;;;;;6.80;2.97;;;18.40;61.70;;;;;;5077413;28;20462;-77
2024/02/06 10:06:07;;;;;;;7.17;2.73;;;18.40;61.50;;;;;;5098176;28;20468;-77
2024/02/06 10:08:37;;;;;;;7.00;2.90;;;18.40;61.40;;;;;;5078604;28;20455;-77
2024/02/06 10:11:06;;;;;;;7.67;2.80;;;18.40;61.30;;;;;;5094926;28;20444;-77
2024/02/06 10:13:34;;;;;;;6.40;2.70;;;18.40;61.80;;;;;;5080229;28;20480;-78
2024/02/06 10:16:02;;;;;;;4.20;2.97;;;18.40;61.70;;;;;;5096648;28;20441;-77
2024/02/06 10:18:30;;;;;;;14.57;3.70;;;18.40;61.80;;;;;;5098312;28;20438;-79
2024/02/06 10:20:58;;;;;;;11.70;3.33;;;18.40;61.50;;;;;;5091061;28;20476;-77
2024/02/06 10:23:27;;;;;;;4.87;2.60;;;18.40;61.50;;;;;;5068966;28;20473;-79
2024/02/06 10:26:03;;;;;;;11.23;3.23;;;18.40;61.70;;;;;;5078168;28;20489;-78
2024/02/06 10:28:31;;;;;;;7.80;3.10;;;18.40;61.50;;;;;;5081304;28;20446;-79
2024/02/06 10:31:00;;;;;;;8.27;3.13;;;18.40;61.60;;;;;;5076081;28;20447;-77
2024/02/06 10:33:28;;;;;;;8.50;2.70;;;18.40;61.80;;;;;;5079156;28;20445;-77
2024/02/06 10:36:01;;;;;;;8.17;3.13;;;18.40;61.40;;;;;;5075947;28;20466;-77
2024/02/06 10:38:29;;;;;;;8.83;3.23;;;18.40;61.80;;;;;;5084843;28;20448;-77
2024/02/06 10:40:58;;;;;;;7.13;2.70;;;18.40;61.70;;;;;;5064907;28;20438;-77
2024/02/06 10:43:44;;;;;;;7.57;3.17;;;18.40;61.50;;;;;;5070814;28;20446;-76
2024/02/06 10:46:20;;;;;;;7.33;2.70;;;18.40;61.90;;;;;;5071431;28;20467;-77
2024/02/06 10:48:50;;;;;;;5.93;2.50;;;18.40;61.90;;;;;;5065821;28;20456;-76
2024/02/06 10:51:22;;;;;;;8.00;3.00;;;18.40;61.80;;;;;;5074367;28;20775;-76
2024/02/06 10:53:57;;;;;;;10.17;3.40;;;18.40;61.80;;;;;;5071141;28;20512;-76
2024/02/06 10:56:26;;;;;;;8.10;3.00;;;18.40;61.70;;;;;;5087627;28;20471;-77
2024/02/06 10:58:57;;;;;;;8.90;2.80;;;18.40;61.90;;;;;;5074020;28;20868;-76
2024/02/06 11:01:28;;;;;;;14.23;3.23;;;18.40;61.90;;;;;;5065671;28;20500;-77
2024/02/06 11:03:58;;;;;;;14.00;3.23;;;18.40;61.90;;;;;;5062959;28;20492;-77
2024/02/06 11:06:29;;;;;;;11.30;2.93;;;18.40;62.00;;;;;;5061664;28;20462;-77
2024/02/06 11:08:56;;;;;;;11.80;3.00;;;18.50;62.00;;;;;;5065753;28;20483;-77
2024/02/06 11:11:26;;;;;;;10.40;3.03;;;18.40;62.00;;;;;;5078658;28;20469;-76
2024/02/06 11:13:53;;;;;;;10.10;2.90;;;18.50;62.10;;;;;;5071274;28;20509;-78
2024/02/06 11:16:22;;;;;;;4.80;2.03;;;18.50;62.00;;;;;;5067202;28;20492;-78
2024/02/06 11:18:56;;;;;;;7.20;2.90;;;18.50;61.90;;;;;;5071953;28;20434;-78
2024/02/06 11:21:31;;;;;;;6.23;2.83;;;18.50;61.90;;;;;;5074090;28;20430;-79
2024/02/06 11:23:59;;;;;;;6.50;2.67;;;18.50;62.10;;;;;;5068971;28;20810;-79
2024/02/06 11:26:28;;;;;;;6.37;2.63;;;18.40;62.20;;;;;;5067245;28;20994;-79
2024/02/06 11:28:56;;;;;;;8.17;3.13;;;18.50;62.10;;;;;;5069865;28;20470;-79
2024/02/06 11:31:24;;;;;;;7.40;2.73;;;18.40;62.30;;;;;;5082554;28;20436;-80
2024/02/06 11:33:52;;;;;;;6.50;2.37;;;18.50;62.10;;;;;;5077519;28;20446;-79
2024/02/06 11:36:20;;;;;;;8.43;3.00;;;18.40;62.10;;;;;;5073151;28;20939;-79
2024/02/06 11:38:48;;;;;;;6.27;2.40;;;18.50;62.30;;;;;;5071940;28;20476;-79
2024/02/06 11:41:17;;;;;;;9.00;2.43;;;18.50;62.10;;;;;;5068620;28;20449;-78
2024/02/06 11:43:50;;;;;;;6.00;3.00;;;18.50;62.40;;;;;;5077271;28;20442;-79
2024/02/06 11:46:22;;;;;;;7.40;2.37;;;18.50;62.10;;;;;;5070414;28;20456;-78
2024/02/06 11:48:50;;;;;;;6.00;2.67;;;18.40;62.10;;;;;;5078114;28;20573;-79
2024/02/06 11:51:25;;;;;;;7.10;2.83;;;18.40;62.20;;;;;;5073217;28;20470;-78
2024/02/06 11:53:53;;;;;;;7.53;2.63;;;18.50;62.60;;;;;;5072660;28;20425;-79
2024/02/06 11:56:20;;;;;;;5.20;2.70;;;18.50;62.40;;;;;;5077615;28;20446;-79
2024/02/06 11:58:50;;;;;;;4.43;2.40;;;18.50;62.20;;;;;;5072407;28;20461;-78
2024/02/06 12:01:25;;;;;;;7.50;2.67;;;18.40;62.50;;;;;;5073312;28;20440;-78
2024/02/06 12:03:56;;;;;;;3.93;2.30;;;18.40;62.20;;;;;;5074559;28;20468;-78
2024/02/06 12:06:24;;;;;;;6.30;2.63;;;18.40;62.30;;;;;;5073509;28;20462;-79
2024/02/06 12:09:00;;;;;;;7.50;2.80;;;18.50;62.60;;;;;;5073495;28;20434;-79
2024/02/06 12:11:35;;;;;;;10.00;2.30;;;18.40;62.30;;;;;;5069251;28;20452;-79
2024/02/06 12:14:04;;;;;;;7.43;3.10;;;18.50;62.70;;;;;;5074989;28;20501;-79
2024/02/06 12:16:32;;;;;;;11.43;2.57;;;18.50;62.60;;;;;;5073016;28;20459;-79
2024/02/06 12:19:01;;;;;;;10.10;2.60;;;18.50;62.40;;;;;;5083736;28;20473;-78
2024/02/06 12:21:29;;;;;;;6.57;2.30;;;18.50;62.40;;;;;;5083881;28;20434;-78
2024/02/06 12:24:04;;;;;;;5.63;2.60;;;18.50;62.60;;;;;;5081890;28;20557;-78
2024/02/06 12:26:32;;;;;;;7.37;2.60;;;18.50;62.60;;;;;;5081923;28;20464;-78
2024/02/06 12:29:01;;;;;;;10.60;2.70;;;18.50;62.70;;;;;;5088907;28;20476;-79
2024/02/06 12:31:31;;;;;;;7.10;2.50;;;18.50;62.30;;;;;;5075368;28;20458;-78
2024/02/06 12:34:00;;;;;;;7.23;2.83;;;18.60;61.80;;;;;;5085229;28;20192;-79
2024/02/06 12:36:28;;;;;;;9.30;2.80;;;18.40;62.70;;;;;;5089037;28;20475;-79
2024/02/06 12:38:56;;;;;;;9.07;3.07;;;18.50;63.00;;;;;;5080333;28;20512;-78
2024/02/06 12:41:25;;;;;;;7.80;2.67;;;18.60;62.70;;;;;;5073820;28;20448;-78
2024/02/06 12:43:53;;;;;;;4.27;2.30;;;18.60;62.80;;;;;;5078914;28;20470;-81
2024/02/06 12:46:21;;;;;;;8.00;2.60;;;18.60;62.40;;;;;;5074440;28;20466;-77
2024/02/06 12:48:51;;;;;;;7.27;2.53;;;18.60;62.60;;;;;;5072114;28;20448;-79
2024/02/06 12:51:20;;;;;;;9.87;2.70;;;18.60;62.60;;;;;;5072720;28;20514;-79
2024/02/06 12:53:48;;;;;;;5.07;2.60;;;18.60;62.80;;;;;;5079027;28;20426;-80
2024/02/06 12:56:16;;;;;;;6.43;2.60;;;18.70;62.70;;;;;;5076774;28;20469;-79